Celebrity Infinity — 9HJD9 — position and weather

sailwx.info

Track history (hours):
 
Tides and Currents Weather Stations Pressure Air Temp Water Temp Dewpoint Dewpoint Depression Visibility Wind Speed Wind Dir Waves Ship Positions

Celebrity Infinity

Last reported at 2019-May-20 16:00 UTC. Time now 2019-May-20 16:29 UTC.
Position N 43°33' E 010°18'.

Length 294 m; draft 8.3 m.

Type: Passenger vessel. MMSI: 249048000.

Date/timePositionNaut miles runAvg speedWind from/ knotsBaromVisibWave heightAir tempDewpointWater temp
2019-May-20 16:00N 43°33' E 010°18'0 0.0
2019-May-20 15:30N 43°33' E 010°18'0 0.0
2019-May-20 15:00N 43°33' E 010°18'51432.4
2019-May-20 15:00N 43°30' E 010°12'510.3 330 / 61012.610.8 25.015.717.0
2019-May-20 14:30N 43°33' E 010°18'510.3
2019-May-20 14:00N 43°30' E 010°12'51241.4 270 / 101012.6 5.4 17.0 17.0
2019-May-20 13:59N 43°33' E 010°18'0 0.0
2019-May-20 13:29N 43°33' E 010°18'0 0.0
2019-May-20 12:59N 43°33' E 010°18'0 0.0
2019-May-20 12:29N 43°33' E 010°18'0 0.0
2019-May-20 11:58N 43°33' E 010°18'0 0.0
2019-May-20 11:28N 43°33' E 010°18'0 0.0
2019-May-20 10:58N 43°33' E 010°18'0 0.0
2019-May-20 10:28N 43°33' E 010°18'0 0.0
2019-May-20 09:54N 43°33' E 010°18'0 0.0
2019-May-20 09:30N 43°33' E 010°18'0 0.0
2019-May-20 09:00N 43°33' E 010°18'0 0.0
2019-May-20 08:30N 43°33' E 010°18'0 0.0
2019-May-20 07:57N 43°33' E 010°18'0 0.0
2019-May-20 07:29N 43°33' E 010°18'0 0.0
2019-May-20 06:59N 43°33' E 010°18'0 0.0
2019-May-20 06:29N 43°33' E 010°18'0 0.0
2019-May-20 05:59N 43°33' E 010°18'0 0.0
2019-May-20 05:29N 43°33' E 010°18'510.7
2019-May-20 05:00N 43°30' E 010°12'5273.8 230 / 101011.610.8 23.015.916.7
2019-May-20 04:58N 43°33' E 010°18'0 0.3
2019-May-20 04:30N 43°33' E 010°18'3 5.2
2019-May-20 04:00N 43°31' E 010°15'510.9
2019-May-20 03:31N 43°27' E 010°11'714.5
2019-May-20 03:00N 43°21' E 010°04'713.3
2019-May-20 02:30N 43°18' E 009°57'714.8
2019-May-20 02:00N 43°18' E 009°46'8485.3
2019-May-20 02:00N 43°18' E 009°36'0 0.3 330 / 251011.6 5.4 18.0 18.0
2019-May-20 01:30N 43°18' E 009°36'815.1
2019-May-20 01:00N 43°18' E 009°26'714.8
2019-May-20 00:30N 43°18' E 009°15'714.8
2019-May-20 00:00N 43°18' E 009°05'714.9
2019-May-19 23:30N 43°17' E 008°55'815.8
2019-May-19 23:00N 43°16' E 008°44'815.3
2019-May-19 22:28N 43°18' E 008°34'1632.5
2019-May-19 22:00N 43°18' E 008°12'8415.2 200 / 201010.6 5.4 17.0 15.0
2019-May-19 21:58N 43°18' E 008°23'714.9
2019-May-19 21:30N 43°19' E 008°14'715.0
2019-May-19 21:00N 43°19' E 008°03'815.2
2019-May-19 20:30N 43°19' E 007°53'815.4
2019-May-19 20:00N 43°19' E 007°42'4272.2
2019-May-19 20:00N 43°18' E 007°48'1224.4 180 / 151010.6 5.4 18.0 16.0
2019-May-19 19:30N 43°19' E 007°32'815.3
2019-May-19 19:01N 43°19' E 007°21'714.7
2019-May-19 18:30N 43°20' E 007°11'815.3
2019-May-19 18:00N 43°26' E 007°05'612.7
2019-May-19 17:30N 43°32' E 007°00'0 0.7
2019-May-19 17:00N 43°32' E 007°00'0 3.3
2019-May-19 16:58N 43°32' E 007°01'0 0.1
2019-May-19 16:30N 43°32' E 007°01'018.2
2019-May-19 16:30N 43°32' E 007°00'2 4.0
2019-May-19 16:00N 43°30' E 007°00'21846.7 240 / 41009.610.8 23.016.116.6
2019-May-19 15:59N 43°32' E 007°00'0 0.0
2019-May-19 15:29N 43°32' E 007°00'0 0.0
2019-May-19 14:59N 43°32' E 007°00'0 0.7
2019-May-19 14:47N 43°32' E 007°01'0 0.4
2019-May-19 14:29N 43°32' E 007°00'0 5.5
2019-May-19 14:28N 43°32' E 007°01'2 4.6
2019-May-19 14:00N 43°30' E 007°00'2131.7 300 / 31009.610.8 23.015.916.5
2019-May-19 13:59N 43°32' E 007°00'0 1.1
2019-May-19 13:57N 43°32' E 007°01'0 0.0
2019-May-19 13:28N 43°32' E 007°01'0 0.9
2019-May-19 13:25N 43°32' E 007°00'0 0.1
2019-May-19 13:00N 43°32' E 007°01'2205.5
2019-May-19 13:00N 43°30' E 007°00'290.6 300 / 101009.6 5.4 17.0 18.0
2019-May-19 12:58N 43°32' E 007°00'0 0.0
2019-May-19 12:28N 43°32' E 007°00'248.2
2019-May-19 12:25N 43°34' E 007°01'2 5.0
2019-May-19 11:58N 43°32' E 007°01'0 4.8
2019-May-19 11:58N 43°32' E 007°00'0 0.0
2019-May-19 11:31N 43°32' E 007°00'114.9
2019-May-19 11:27N 43°33' E 007°01'1 1.9
2019-May-19 11:00N 43°32' E 007°00'030.0
2019-May-19 11:00N 43°32' E 007°01'1 1.1
2019-May-19 10:30N 43°33' E 007°01'1218.9
2019-May-19 10:30N 43°32' E 007°00'0 0.0
2019-May-19 10:00N 43°32' E 007°00'0 2.0
2019-May-19 09:59N 43°32' E 007°01'0 0.1
2019-May-19 09:30N 43°32' E 007°00'132.1
2019-May-19 09:28N 43°33' E 007°01'3 6.0
2019-May-19 09:00N 43°30' E 007°00'21476.7 270 / 21009.6 5.4 17.0 15.0
2019-May-19 08:59N 43°32' E 007°00'0 0.7
2019-May-19 08:56N 43°32' E 007°01'0 0.0
2019-May-19 08:34N 43°32' E 007°01'0 0.5
2019-May-19 08:29N 43°32' E 007°00'0 5.6
2019-May-19 08:28N 43°32' E 007°01'0 1.4
2019-May-19 08:25N 43°32' E 007°01'2 4.9
2019-May-19 08:00N 43°30' E 007°00'2228.6 010 / 21009.610.8 24.017.116.4
2019-May-19 07:59N 43°32' E 007°00'113.5
2019-May-19 07:55N 43°33' E 007°01'0 1.0
2019-May-19 07:50N 43°33' E 007°01'1 2.2
2019-May-19 07:30N 43°32' E 007°01'0 5.8
2019-May-19 07:29N 43°32' E 007°01'0 0.1
2019-May-19 07:00N 43°32' E 007°01'023.6
2019-May-19 07:00N 43°32' E 007°01'011.9
2019-May-19 06:59N 43°32' E 007°00'1 1.4
2019-May-19 06:30N 43°33' E 007°01'160.3
2019-May-19 06:30N 43°32' E 007°01'0 1.6
2019-May-19 06:28N 43°32' E 007°00'1 1.9
2019-May-19 06:00N 43°33' E 007°01'132.1
2019-May-19 05:59N 43°32' E 007°01'0 0.8
2019-May-19 05:52N 43°32' E 007°00'0 1.4
2019-May-19 05:30N 43°32' E 007°01'012.4
2019-May-19 05:28N 43°32' E 007°00'119.8
2019-May-19 05:26N 43°33' E 007°01'1 1.6
2019-May-19 04:58N 43°32' E 007°00'1 8.7
2019-May-19 04:52N 43°33' E 007°01'1 2.5
2019-May-19 04:30N 43°32' E 007°00'1 5.9
2019-May-19 04:22N 43°33' E 007°01'1 2.4
2019-May-19 04:00N 43°32' E 007°00'2160.6
2019-May-19 04:00N 43°30' E 007°00'251.8 330 / 41009.610.8 23.016.416.7
2019-May-19 03:57N 43°32' E 007°01'0 0.2
2019-May-19 03:30N 43°32' E 007°00'1131.0
2019-May-19 03:30N 43°33' E 007°01'1 1.7
2019-May-19 03:00N 43°32' E 007°01'017.6
2019-May-19 03:00N 43°32' E 007°00'0 0.0
2019-May-19 02:30N 43°32' E 007°00'1 9.6
2019-May-19 02:24N 43°33' E 007°01'3 7.0
2019-May-19 02:00N 43°30' E 007°00'21437.2 360 / 31009.610.8 23.016.416.7
2019-May-19 01:59N 43°32' E 007°00'0 3.7
2019-May-19 01:58N 43°32' E 007°01'0 0.2
2019-May-19 01:29N 43°32' E 007°00'1 9.3
2019-May-19 01:24N 43°33' E 007°01'1 2.1
2019-May-19 01:00N 43°32' E 007°01'0 7.1
2019-May-19 00:59N 43°32' E 007°00'0 0.0
2019-May-19 00:29N 43°32' E 007°00'1 8.4
2019-May-19 00:23N 43°33' E 007°01'1 2.2
2019-May-18 23:59N 43°32' E 007°00'0 5.3
2019-May-18 23:58N 43°32' E 007°01'1 1.8
2019-May-18 23:30N 43°33' E 007°01'140.9
2019-May-18 23:28N 43°32' E 007°00'0 0.1
2019-May-18 22:55N 43°32' E 007°00'0 0.8
2019-May-18 22:49N 43°32' E 007°01'1 2.3
2019-May-18 22:28N 43°33' E 007°01'1196.5
2019-May-18 22:28N 43°32' E 007°00'2 4.3
2019-May-18 22:00N 43°30' E 007°00'266.9 270 / 81010.6 5.4 18.0 16.0
2019-May-18 21:58N 43°32' E 007°00'0294.4
2019-May-18 21:58N 43°32' E 007°01'0 0.2
2019-May-18 21:30N 43°32' E 007°00'0109.4
2019-May-18 21:30N 43°32' E 007°01'1 5.1
2019-May-18 21:21N 43°33' E 007°01'1 2.4
2019-May-18 21:00N 43°32' E 007°00'0 1.7
2019-May-18 20:57N 43°32' E 007°01'1 6.8
2019-May-18 20:51N 43°33' E 007°01'1 2.4
2019-May-18 20:30N 43°32' E 007°00'1485.2
2019-May-18 20:30N 43°33' E 007°01'1137.0
2019-May-18 20:30N 43°32' E 007°01'1 1.2
2019-May-18 20:00N 43°33' E 007°01'048.5
2019-May-18 20:00N 43°33' E 007°01'1170.4
2019-May-18 20:00N 43°32' E 007°00'2391.0
2019-May-18 20:00N 43°30' E 007°00'2 4.3 270 / 101010.6 5.4 18.0 16.0
2019-May-18 19:30N 43°32' E 007°01'014.7
2019-May-18 19:30N 43°32' E 007°00'0 8.1
2019-May-18 19:29N 43°32' E 007°01'1 1.2
2019-May-18 19:00N 43°32' E 007°01'144.9
2019-May-18 18:59N 43°32' E 007°00'126.7
2019-May-18 18:57N 43°33' E 007°01'1 1.8
2019-May-18 18:29N 43°32' E 007°00'0 6.7
2019-May-18 18:28N 43°32' E 007°01'110.5
2019-May-18 18:24N 43°33' E 007°01'0 0.0
2019-May-18 18:00N 43°33' E 007°01'134.0
2019-May-18 17:59N 43°32' E 007°00'0 6.1
2019-May-18 17:58N 43°32' E 007°01'0 0.2
2019-May-18 17:29N 43°32' E 007°00'1132.1
2019-May-18 17:28N 43°32' E 007°01'0 4.7
2019-May-18 17:24N 43°33' E 007°01'1 2.0
2019-May-18 16:59N 43°32' E 007°00'132.7
2019-May-18 16:57N 43°33' E 007°01'079.2
2019-May-18 16:57N 43°32' E 007°01'0 0.2
2019-May-18 16:30N 43°32' E 007°01'050.0
2019-May-18 16:30N 43°33' E 007°01'137.1
2019-May-18 16:28N 43°32' E 007°00'0 0.1
2019-May-18 16:00N 43°32' E 007°01'1241.6
2019-May-18 16:00N 43°33' E 007°01'3409.9
2019-May-18 16:00N 43°30' E 007°00'286.3 300 / 41010.610.8 23.016.616.7
2019-May-18 15:58N 43°32' E 007°00'0 0.1
2019-May-18 15:30N 43°32' E 007°00'0 2.1
2019-May-18 15:28N 43°32' E 007°01'064.9
2019-May-18 15:28N 43°32' E 007°00'0 0.0
2019-May-18 14:58N 43°32' E 007°00'0 1.5
2019-May-18 14:56N 43°32' E 007°00'1 2.6
2019-May-18 14:38N 43°33' E 007°01'0 2.0
2019-May-18 14:31N 43°33' E 007°01'1442.7
2019-May-18 14:30N 43°32' E 007°00'0 1.4
2019-May-18 14:29N 43°32' E 007°00'0 0.0
2019-May-18 14:00N 43°32' E 007°00'029.8
2019-May-18 14:00N 43°32' E 007°01'2203.4
2019-May-18 14:00N 43°30' E 007°00'32048.2 200 / 171009.610.8 23.015.416.7
2019-May-18 13:59N 43°33' E 007°01'1 1.7
2019-May-18 13:30N 43°32' E 007°00'180.2
2019-May-18 13:29N 43°33' E 007°01'1165.1
2019-May-18 13:29N 43°32' E 007°01'0 0.1
2019-May-18 13:00N 43°32' E 007°01'010.9
2019-May-18 13:00N 43°32' E 007°01'0 5.7
2019-May-18 13:00N 43°32' E 007°00'0 0.1
2019-May-18 12:30N 43°32' E 007°01'0 0.7
2019-May-18 12:27N 43°32' E 007°00'1412.5
2019-May-18 12:26N 43°33' E 007°01'1 1.8
2019-May-18 12:00N 43°32' E 007°01'0 2.4
2019-May-18 11:59N 43°32' E 007°00'111.4
2019-May-18 11:55N 43°33' E 007°01'1 1.7
2019-May-18 11:30N 43°32' E 007°01'1237.6
2019-May-18 11:30N 43°33' E 007°01'163.7
2019-May-18 11:29N 43°32' E 007°00'0 0.7
2019-May-18 11:00N 43°32' E 007°01'2227.1
2019-May-18 11:00N 43°30' E 007°00'2205.3 300 / 101009.610.8 16.0 16.0
2019-May-18 10:59N 43°32' E 007°01'0127.3
2019-May-18 10:59N 43°32' E 007°00'1 1.9
2019-May-18 10:30N 43°33' E 007°01'144.3
2019-May-18 10:29N 43°32' E 007°01'0 8.8
2019-May-18 10:29N 43°32' E 007°00'1 1.8
2019-May-18 09:59N 43°33' E 007°01'155.9
2019-May-18 09:58N 43°32' E 007°00'0 2.6
2019-May-18 09:58N 43°32' E 007°00'0 0.1
2019-May-18 09:30N 43°32' E 007°00'0 7.7
2019-May-18 09:29N 43°32' E 007°01'114.2
2019-May-18 09:26N 43°33' E 007°01'1 2.0
2019-May-18 09:00N 43°32' E 007°00'1235.7
2019-May-18 09:00N 43°33' E 007°01'3386.5
2019-May-18 09:00N 43°30' E 007°00'282.5 260 / 31009.610.8 23.015.916.6
2019-May-18 08:58N 43°32' E 007°00'1 1.3
2019-May-18 08:29N 43°32' E 007°01'150.1
2019-May-18 08:28N 43°32' E 007°00'0 0.1
2019-May-18 07:58N 43°32' E 007°00'0 0.0
2019-May-18 07:30N 43°32' E 007°00'2 3.5
2019-May-18 07:00N 43°30' E 007°00'713.5
2019-May-18 06:30N 43°24' E 006°58'816.6
2019-May-18 06:00N 43°16' E 006°53'816.7
2019-May-18 05:31N 43°09' E 006°47'916.8
2019-May-18 05:00N 43°01' E 006°42'1918.6
2019-May-18 04:00N 42°48' E 006°24'3617.9 360 / 271008.6 5.4 23.018.016.0
2019-May-18 02:00N 42°30' E 005°42'8721.6 290 / 351009.610.8 17.0 17.0
2019-May-17 22:00N 41°48' E 004°00'19 9.4 360 / 301010.6 5.4 18.0 16.0
2019-May-17 20:00N 41°42' E 003°36'4619.6 360 / 351010.6 5.4 18.0 16.0
2019-May-17 17:40N 41°21' E 002°42'518.0
2019-May-17 17:23N 41°20' E 002°36'718.1
2019-May-17 17:00N 41°18' E 002°27'917.4
2019-May-17 16:30N 41°16' E 002°15'5 9.1
2019-May-17 16:00N 41°18' E 002°10'3201.6
2019-May-17 16:00N 41°18' E 002°06'5 9.9 050 / 141010.610.8 23.014.916.3
2019-May-17 15:30N 41°21' E 002°11'0 0.4
2019-May-17 15:00N 41°22' E 002°11'0 0.0
2019-May-17 14:29N 41°22' E 002°11'0 0.0
2019-May-17 13:59N 41°22' E 002°11'0 0.0
2019-May-17 13:26N 41°22' E 002°11'511.3
2019-May-17 13:00N 41°18' E 002°06'581.1 350 / 201019.6 5.4 16.0 17.0
2019-May-17 12:56N 41°22' E 002°11'0 0.0
2019-May-17 12:29N 41°22' E 002°11'0 0.0
2019-May-17 11:58N 41°22' E 002°11'0 0.0
2019-May-17 11:28N 41°22' E 002°11'0 0.0
2019-May-17 10:58N 41°22' E 002°11'0 0.0
2019-May-17 10:28N 41°22' E 002°11'0 0.0
2019-May-17 10:01N 41°22' E 002°11'0 0.0
2019-May-17 09:30N 41°22' E 002°11'0 0.0
2019-May-17 09:00N 41°22' E 002°11'0 0.0
2019-May-17 08:30N 41°22' E 002°11'0 0.0
2019-May-17 08:00N 41°22' E 002°11'0 0.0
2019-May-17 07:29N 41°22' E 002°11'0 0.0
2019-May-17 06:59N 41°22' E 002°11'0 0.0
2019-May-17 06:29N 41°22' E 002°11'0 0.0
2019-May-17 05:59N 41°22' E 002°11'5 2.5
2019-May-17 04:00N 41°18' E 002°06'0 0.0 060 / 101008.610.8 23.012.716.1
2019-May-17 03:00N 41°18' E 002°06'311.9 070 / 151008.610.8 23.012.716.6
2019-May-17 02:43N 41°19' E 002°10'2 7.0
2019-May-17 02:27N 41°17' E 002°11'23 9.6
2019-May-17 00:00N 41°12' E 002°42'1413.5 180 / 91012.6 5.4 18.0 16.0
2019-May-16 23:00N 41°12' E 003°00'7715.3 180 / 251012.6 5.4 18.0 16.0
2019-May-16 18:00N 41°12' E 004°42'18 9.0 180 / 201016.6 14.0 6.416.0
2019-May-16 16:00N 41°12' E 005°06'7719.2 200 / 161016.610.8 16.0 7.815.5
2019-May-16 12:00N 41°18' E 006°48'3210.5 220 / 71017.6 5.4 19.0 17.0
2019-May-16 09:00N 41°18' E 007°30'5911.7 340 / 201017.6 5.4 17.0 16.0
2019-May-16 04:00N 41°18' E 008°48'2713.5 340 / 81016.610.8 23.012.716.1
2019-May-16 02:00N 41°18' E 009°24'1110.8 010 / 281016.610.8 23.013.315.9
2019-May-16 01:00N 41°24' E 009°36'2425.2 050 / 281014.6 5.4 19.0 15.0
2019-May-16 00:03N 41°36' E 010°03'350.5
2019-May-16 00:00N 41°36' E 010°00'4189.4 050 / 251014.6 5.4 19.0 16.0
2019-May-15 23:58N 41°36' E 010°05'813.8
2019-May-15 23:23N 41°40' E 010°15'4513.3
2019-May-15 20:00N 41°54' E 011°12'25 4.2 050 / 221016.6 17.0 16.0
2019-May-15 14:00N 42°06' E 011°42'0 0.0 050 / 81015.6 5.4 18.0 16.0
2019-May-15 09:00N 42°06' E 011°42'0 0.0 050 / 101016.6 5.4 17.0 16.0
2019-May-15 05:00N 42°06' E 011°42'7 7.5 020 / 201016.610.8 23.013.516.1
2019-May-15 04:00N 42°00' E 011°36'19 9.4 030 / 261016.610.8 11.0 1.616.0
2019-May-15 02:00N 42°06' E 011°12'1313.4 050 / 201019.6 5.4 19.0 17.0
2019-May-15 01:00N 42°06' E 010°54'2114.5 050 / 251019.6 5.4 19.0 17.0
2019-May-14 23:33N 42°22' E 010°36'115.4
2019-May-14 23:28N 42°23' E 010°35'815.2
2019-May-14 22:55N 42°28' E 010°26'815.4
2019-May-14 22:24N 42°33' E 010°18'915.3
2019-May-14 21:49N 42°39' E 010°09'2713.5
2019-May-14 19:51N 43°05' E 010°04'515.3
2019-May-14 19:31N 43°11' E 010°05'815.2
2019-May-14 19:01N 43°18' E 010°06'715.0
2019-May-14 18:31N 43°25' E 010°10'714.5
2019-May-14 18:01N 43°32' E 010°15'3 5.8
2019-May-14 17:31N 43°33' E 010°18'0 0.0
2019-May-14 16:59N 43°33' E 010°18'0 0.0
2019-May-14 16:29N 43°33' E 010°18'510.9
2019-May-14 16:00N 43°30' E 010°12'5589.4 080 / 181020.610.8 24.0 6.317.1
2019-May-14 15:59N 43°33' E 010°18'0 0.0
2019-May-14 15:29N 43°33' E 010°18'0 0.0
2019-May-14 14:59N 43°33' E 010°18'0 0.0
2019-May-14 14:25N 43°33' E 010°18'512.6
2019-May-14 14:00N 43°30' E 010°12'5228.8 090 / 151020.6 5.4 19.0 17.0
2019-May-14 13:58N 43°33' E 010°18'0 0.0
2019-May-14 13:25N 43°33' E 010°18'0 0.0
2019-May-14 12:55N 43°33' E 010°18'0 0.0
2019-May-14 12:30N 43°33' E 010°18'0 0.0
2019-May-14 11:57N 43°33' E 010°18'0 0.0
2019-May-14 11:30N 43°33' E 010°18'0 0.0
2019-May-14 11:00N 43°33' E 010°18'0 0.0
2019-May-14 10:27N 43°33' E 010°18'0 0.0
2019-May-14 09:56N 43°33' E 010°18'0 0.0
2019-May-14 09:29N 43°33' E 010°18'0 0.0
2019-May-14 08:53N 43°33' E 010°18'0 0.0
2019-May-14 08:23N 43°33' E 010°18'0 0.0
2019-May-14 07:58N 43°33' E 010°18'0 0.0
2019-May-14 07:28N 43°33' E 010°18'0 0.0
2019-May-14 06:58N 43°33' E 010°18'0 0.0
2019-May-14 06:28N 43°33' E 010°18'0 0.0
2019-May-14 05:58N 43°33' E 010°18'0 0.0
2019-May-14 05:30N 43°33' E 010°18'0 0.0
2019-May-14 05:00N 43°33' E 010°18'5474.4
2019-May-14 05:00N 43°30' E 010°12'511.2 100 / 51020.610.8 23.013.016.8
2019-May-14 04:30N 43°33' E 010°18'0 0.4
2019-May-14 04:00N 43°33' E 010°18'3 5.3
2019-May-14 03:30N 43°31' E 010°16'5 9.0
2019-May-14 03:00N 43°28' E 010°11'2165.2
2019-May-14 03:00N 43°30' E 010°12'918.1 060 / 151021.610.8 23.013.016.4
2019-May-14 02:30N 43°22' E 010°06'612.8
2019-May-14 02:00N 43°18' E 009°59'4244.1
2019-May-14 02:00N 43°18' E 009°54'3 5.6 050 / 251022.6 5.4 19.0 15.0
2019-May-14 01:30N 43°19' E 009°50'713.6
2019-May-14 01:01N 43°20' E 009°41'8497.8
2019-May-14 01:00N 43°18' E 009°30'3 5.9 050 / 201022.6 5.4 19.0 16.0
2019-May-14 00:31N 43°20' E 009°32'713.3
2019-May-14 00:01N 43°22' E 009°23'714.1
2019-May-13 23:30N 43°23' E 009°14'713.9
2019-May-13 23:00N 43°24' E 009°04'713.7
2019-May-13 22:30N 43°26' E 008°55'713.4
2019-May-13 22:00N 43°27' E 008°46'713.1
2019-May-13 21:30N 43°28' E 008°37'713.4
2019-May-13 21:00N 43°29' E 008°28'713.5
2019-May-13 20:30N 43°30' E 008°19'713.4
2019-May-13 20:00N 43°32' E 008°10'713.4
2019-May-13 19:30N 43°33' E 008°00'713.2
2019-May-13 19:00N 43°34' E 007°51'713.5
2019-May-13 18:30N 43°36' E 007°42'612.9
2019-May-13 18:00N 43°37' E 007°34'713.4
2019-May-13 17:30N 43°38' E 007°25'510.0
2019-May-13 17:00N 43°41' E 007°19'0 0.7
2019-May-13 16:28N 43°41' E 007°19'511.4
2019-May-13 16:00N 43°36' E 007°18'569.1 250 / 181021.610.8 24.016.117.0
2019-May-13 15:55N 43°41' E 007°19'0 0.0
2019-May-13 15:28N 43°41' E 007°19'0 0.0
2019-May-13 15:00N 43°41' E 007°19'5361.5
2019-May-13 15:00N 43°36' E 007°18'511.1 1021.610.8 24.016.116.8
2019-May-13 14:30N 43°41' E 007°19'0 0.0
2019-May-13 14:00N 43°41' E 007°19'0 0.1
2019-May-13 13:30N 43°41' E 007°19'510.8
2019-May-13 13:00N 43°36' E 007°18'5110.3 270 / 101021.6 5.4 20.0 17.0
2019-May-13 12:57N 43°41' E 007°19'0 0.1
2019-May-13 12:29N 43°41' E 007°19'0 0.0
2019-May-13 11:59N 43°41' E 007°19'0 0.2
2019-May-13 11:46N 43°41' E 007°19'0 0.1
2019-May-13 11:29N 43°41' E 007°19'0 0.2
2019-May-13 11:19N 43°41' E 007°19'0 0.1
2019-May-13 10:59N 43°41' E 007°19'0 0.7
2019-May-13 10:56N 43°41' E 007°19'0 0.1
2019-May-13 10:30N 43°41' E 007°19'0 1.6
2019-May-13 10:28N 43°41' E 007°19'0 0.0
2019-May-13 09:58N 43°41' E 007°19'0 0.0
2019-May-13 09:28N 43°41' E 007°19'0 0.0
2019-May-13 08:58N 43°41' E 007°19'0 0.0
2019-May-13 08:25N 43°41' E 007°19'0 0.0
2019-May-13 08:00N 43°41' E 007°19'0 0.2
2019-May-13 07:46N 43°41' E 007°19'0 0.2
2019-May-13 07:30N 43°41' E 007°19'0 4.0
2019-May-13 07:30N 43°41' E 007°19'0 0.0
2019-May-13 07:00N 43°41' E 007°19'5719.3
2019-May-13 07:00N 43°36' E 007°18'5380.2 270 / 131021.6 5.4 18.0 18.0
2019-May-13 06:59N 43°41' E 007°19'0 0.1
2019-May-13 06:30N 43°41' E 007°19'1 4.1
2019-May-13 06:18N 43°42' E 007°19'1 2.8
2019-May-13 06:00N 43°41' E 007°19'0 1.0
2019-May-13 05:58N 43°41' E 007°19'1 1.3
2019-May-13 05:30N 43°42' E 007°19'139.0
2019-May-13 05:29N 43°41' E 007°19'0 0.0
2019-May-13 05:00N 43°41' E 007°19'0 0.9
2019-May-13 04:57N 43°41' E 007°19'0 0.2
2019-May-13 04:30N 43°41' E 007°19'2 4.0
2019-May-13 04:00N 43°39' E 007°19'4234.2
2019-May-13 04:00N 43°36' E 007°18'2 4.2 050 / 31020.610.8 23.012.716.9
2019-May-13 03:30N 43°34' E 007°19'612.2
2019-May-13 03:00N 43°28' E 007°18'612.3
2019-May-13 02:30N 43°22' E 007°16'612.0
2019-May-13 02:00N 43°16' E 007°13'2119.4
2019-May-13 02:00N 43°18' E 007°12'715.1 310 / 81020.610.8 24.017.116.3
2019-May-13 01:30N 43°11' E 007°09'612.2
2019-May-13 01:00N 43°07' E 007°02'10623.4
2019-May-13 01:00N 43°00' E 006°54'3 7.1 360 / 161018.6 5.4 18.0 16.0
2019-May-13 00:30N 43°03' E 006°57'612.1
2019-May-13 00:00N 42°58' E 006°51'611.4
2019-May-12 23:29N 42°54' E 006°46'511.2
2019-May-12 23:00N 42°50' E 006°41'4715.6
2019-May-12 20:00N 42°18' E 005°54'7915.8 340 / 451019.6 5.4 17.0 17.0
2019-May-12 15:00N 41°30' E 004°30'2525.5 340 / 601021.610.8 23.015.415.6
2019-May-12 14:00N 41°12' E 004°06'4013.3 340 / 551025.6 5.4 19.0 17.0
2019-May-12 11:00N 40°48' E 003°24'3316.5 350 / 351027.6 5.4 19.0 17.0
2019-May-12 09:00N 40°24' E 002°54'4 8.4 330 / 131029.7 5.4 17.0 17.0
2019-May-12 08:34N 40°25' E 002°49'114.7
2019-May-12 08:30N 40°24' E 002°48'814.7
2019-May-12 07:59N 40°19' E 002°41'4815.9
2019-May-12 05:00N 39°48' E 001°54'2612.9 340 / 201029.710.8 23.015.917.5
2019-May-12 03:00N 39°30' E 001°30'2914.7 180 / 61029.710.8 22.516.117.5
2019-May-12 01:00N 39°12' E 001°00'1515.2 220 / 51029.6 5.4 18.0 16.0
2019-May-12 00:00N 39°00' E 000°48'10114.5 010 / 101028.6 5.4 18.0 16.0
2019-May-11 17:00N 37°36' W 000°24'2512.3 070 / 191023.610.8 23.015.119.1
2019-May-11 15:00N 37°30' W 000°54'0 0.0 060 / 191023.610.8 23.0 0.218.0
2019-May-11 07:00N 37°30' W 000°54'1414.3 050 / 101021.610.8 19.0 18.0
2019-May-11 06:00N 37°30' W 000°36'379126.3 190 / 21020.610.8 23.016.818.2
2019-May-11 03:00N 31°12' W 001°06'32791.3 190 / 61020.610.8 22.016.618.8
2019-May-10 23:25N 36°36' W 001°50'4914.7
2019-May-10 20:04N 36°26' W 002°50'415.9
2019-May-10 19:49N 36°26' W 002°55'515.8
2019-May-10 19:28N 36°27' W 003°01'1812.4
2019-May-10 18:00N 36°30' W 003°24'   280 / 81018.610.8 23.016.617.9
Track history (hours):
 
Tides and Currents Weather Stations Pressure Air Temp Water Temp Dewpoint Dewpoint Depression Visibility Wind Speed Wind Dir Waves Ship Positions

Celebrity Infinity

Last reported at 2019-May-20 16:00 UTC. Time now 2019-May-20 16:29 UTC.
Position N 43°33' E 010°18'.

Length 294 m; draft 8.3 m.

Type: Passenger vessel. MMSI: 249048000.

Date/timePositionNaut miles runAvg speedWind from/ knotsBaromVisibWave heightAir tempDewpointWater temp
2019-May-20 16:00N 43°33' E 010°18'0 0.0
2019-May-20 15:30N 43°33' E 010°18'0 0.0
2019-May-20 15:00N 43°33' E 010°18'51432.4
2019-May-20 15:00N 43°30' E 010°12'510.3 330 / 61012.610.8 25.015.717.0
2019-May-20 14:30N 43°33' E 010°18'510.3
2019-May-20 14:00N 43°30' E 010°12'51241.4 270 / 101012.6 5.4 17.0 17.0
2019-May-20 13:59N 43°33' E 010°18'0 0.0
2019-May-20 13:29N 43°33' E 010°18'0 0.0
2019-May-20 12:59N 43°33' E 010°18'0 0.0
2019-May-20 12:29N 43°33' E 010°18'0 0.0
2019-May-20 11:58N 43°33' E 010°18'0 0.0
2019-May-20 11:28N 43°33' E 010°18'0 0.0
2019-May-20 10:58N 43°33' E 010°18'0 0.0
2019-May-20 10:28N 43°33' E 010°18'0 0.0
2019-May-20 09:54N 43°33' E 010°18'0 0.0
2019-May-20 09:30N 43°33' E 010°18'0 0.0
2019-May-20 09:00N 43°33' E 010°18'0 0.0
2019-May-20 08:30N 43°33' E 010°18'0 0.0
2019-May-20 07:57N 43°33' E 010°18'0 0.0
2019-May-20 07:29N 43°33' E 010°18'0 0.0
2019-May-20 06:59N 43°33' E 010°18'0 0.0
2019-May-20 06:29N 43°33' E 010°18'0 0.0
2019-May-20 05:59N 43°33' E 010°18'0 0.0
2019-May-20 05:29N 43°33' E 010°18'510.7
2019-May-20 05:00N 43°30' E 010°12'5273.8 230 / 101011.610.8 23.015.916.7
2019-May-20 04:58N 43°33' E 010°18'0 0.3
2019-May-20 04:30N 43°33' E 010°18'3 5.2
2019-May-20 04:00N 43°31' E 010°15'510.9
2019-May-20 03:31N 43°27' E 010°11'714.5
2019-May-20 03:00N 43°21' E 010°04'713.3
2019-May-20 02:30N 43°18' E 009°57'714.8
2019-May-20 02:00N 43°18' E 009°46'8485.3
2019-May-20 02:00N 43°18' E 009°36'0 0.3 330 / 251011.6 5.4 18.0 18.0
2019-May-20 01:30N 43°18' E 009°36'815.1
2019-May-20 01:00N 43°18' E 009°26'714.8
2019-May-20 00:30N 43°18' E 009°15'714.8
2019-May-20 00:00N 43°18' E 009°05'714.9
2019-May-19 23:30N 43°17' E 008°55'815.8
2019-May-19 23:00N 43°16' E 008°44'815.3
2019-May-19 22:28N 43°18' E 008°34'1632.5
2019-May-19 22:00N 43°18' E 008°12'8415.2 200 / 201010.6 5.4 17.0 15.0
2019-May-19 21:58N 43°18' E 008°23'714.9
2019-May-19 21:30N 43°19' E 008°14'715.0
2019-May-19 21:00N 43°19' E 008°03'815.2
2019-May-19 20:30N 43°19' E 007°53'815.4
2019-May-19 20:00N 43°19' E 007°42'4272.2
2019-May-19 20:00N 43°18' E 007°48'1224.4 180 / 151010.6 5.4 18.0 16.0
2019-May-19 19:30N 43°19' E 007°32'815.3
2019-May-19 19:01N 43°19' E 007°21'714.7
2019-May-19 18:30N 43°20' E 007°11'815.3
2019-May-19 18:00N 43°26' E 007°05'612.7
2019-May-19 17:30N 43°32' E 007°00'0 0.7
2019-May-19 17:00N 43°32' E 007°00'0 3.3
2019-May-19 16:58N 43°32' E 007°01'0 0.1
2019-May-19 16:30N 43°32' E 007°01'018.2
2019-May-19 16:30N 43°32' E 007°00'2 4.0
2019-May-19 16:00N 43°30' E 007°00'21846.7 240 / 41009.610.8 23.016.116.6
2019-May-19 15:59N 43°32' E 007°00'0 0.0
2019-May-19 15:29N 43°32' E 007°00'0 0.0
2019-May-19 14:59N 43°32' E 007°00'0 0.7
2019-May-19 14:47N 43°32' E 007°01'0 0.4
2019-May-19 14:29N 43°32' E 007°00'0 5.5
2019-May-19 14:28N 43°32' E 007°01'2 4.6
2019-May-19 14:00N 43°30' E 007°00'2131.7 300 / 31009.610.8 23.015.916.5
2019-May-19 13:59N 43°32' E 007°00'0 1.1
2019-May-19 13:57N 43°32' E 007°01'0 0.0
2019-May-19 13:28N 43°32' E 007°01'0 0.9
2019-May-19 13:25N 43°32' E 007°00'0 0.1
2019-May-19 13:00N 43°32' E 007°01'2205.5
2019-May-19 13:00N 43°30' E 007°00'290.6 300 / 101009.6 5.4 17.0 18.0
2019-May-19 12:58N 43°32' E 007°00'0 0.0
2019-May-19 12:28N 43°32' E 007°00'248.2
2019-May-19 12:25N 43°34' E 007°01'2 5.0
2019-May-19 11:58N 43°32' E 007°01'0 4.8
2019-May-19 11:58N 43°32' E 007°00'0 0.0
2019-May-19 11:31N 43°32' E 007°00'114.9
2019-May-19 11:27N 43°33' E 007°01'1 1.9
2019-May-19 11:00N 43°32' E 007°00'030.0
2019-May-19 11:00N 43°32' E 007°01'1 1.1
2019-May-19 10:30N 43°33' E 007°01'1218.9
2019-May-19 10:30N 43°32' E 007°00'0 0.0
2019-May-19 10:00N 43°32' E 007°00'0 2.0
2019-May-19 09:59N 43°32' E 007°01'0 0.1
2019-May-19 09:30N 43°32' E 007°00'132.1
2019-May-19 09:28N 43°33' E 007°01'3 6.0
2019-May-19 09:00N 43°30' E 007°00'21476.7 270 / 21009.6 5.4 17.0 15.0
2019-May-19 08:59N 43°32' E 007°00'0 0.7
2019-May-19 08:56N 43°32' E 007°01'0 0.0
2019-May-19 08:34N 43°32' E 007°01'0 0.5
2019-May-19 08:29N 43°32' E 007°00'0 5.6
2019-May-19 08:28N 43°32' E 007°01'0 1.4
2019-May-19 08:25N 43°32' E 007°01'2 4.9
2019-May-19 08:00N 43°30' E 007°00'2228.6 010 / 21009.610.8 24.017.116.4
2019-May-19 07:59N 43°32' E 007°00'113.5
2019-May-19 07:55N 43°33' E 007°01'0 1.0
2019-May-19 07:50N 43°33' E 007°01'1 2.2
2019-May-19 07:30N 43°32' E 007°01'0 5.8
2019-May-19 07:29N 43°32' E 007°01'0 0.1
2019-May-19 07:00N 43°32' E 007°01'023.6
2019-May-19 07:00N 43°32' E 007°01'011.9
2019-May-19 06:59N 43°32' E 007°00'1 1.4
2019-May-19 06:30N 43°33' E 007°01'160.3
2019-May-19 06:30N 43°32' E 007°01'0 1.6
2019-May-19 06:28N 43°32' E 007°00'1 1.9
2019-May-19 06:00N 43°33' E 007°01'132.1
2019-May-19 05:59N 43°32' E 007°01'0 0.8
2019-May-19 05:52N 43°32' E 007°00'0 1.4
2019-May-19 05:30N 43°32' E 007°01'012.4
2019-May-19 05:28N 43°32' E 007°00'119.8
2019-May-19 05:26N 43°33' E 007°01'1 1.6
2019-May-19 04:58N 43°32' E 007°00'1 8.7
2019-May-19 04:52N 43°33' E 007°01'1 2.5
2019-May-19 04:30N 43°32' E 007°00'1 5.9
2019-May-19 04:22N 43°33' E 007°01'1 2.4
2019-May-19 04:00N 43°32' E 007°00'2160.6
2019-May-19 04:00N 43°30' E 007°00'251.8 330 / 41009.610.8 23.016.416.7
2019-May-19 03:57N 43°32' E 007°01'0 0.2
2019-May-19 03:30N 43°32' E 007°00'1131.0
2019-May-19 03:30N 43°33' E 007°01'1 1.7
2019-May-19 03:00N 43°32' E 007°01'017.6
2019-May-19 03:00N 43°32' E 007°00'0 0.0
2019-May-19 02:30N 43°32' E 007°00'1 9.6
2019-May-19 02:24N 43°33' E 007°01'3 7.0
2019-May-19 02:00N 43°30' E 007°00'21437.2 360 / 31009.610.8 23.016.416.7
2019-May-19 01:59N 43°32' E 007°00'0 3.7
2019-May-19 01:58N 43°32' E 007°01'0 0.2
2019-May-19 01:29N 43°32' E 007°00'1 9.3
2019-May-19 01:24N 43°33' E 007°01'1 2.1
2019-May-19 01:00N 43°32' E 007°01'0 7.1
2019-May-19 00:59N 43°32' E 007°00'0 0.0
2019-May-19 00:29N 43°32' E 007°00'1 8.4
2019-May-19 00:23N 43°33' E 007°01'1 2.2
2019-May-18 23:59N 43°32' E 007°00'0 5.3
2019-May-18 23:58N 43°32' E 007°01'1 1.8
2019-May-18 23:30N 43°33' E 007°01'140.9
2019-May-18 23:28N 43°32' E 007°00'0 0.1
2019-May-18 22:55N 43°32' E 007°00'0 0.8
2019-May-18 22:49N 43°32' E 007°01'1 2.3
2019-May-18 22:28N 43°33' E 007°01'1196.5
2019-May-18 22:28N 43°32' E 007°00'2 4.3
2019-May-18 22:00N 43°30' E 007°00'266.9 270 / 81010.6 5.4 18.0 16.0
2019-May-18 21:58N 43°32' E 007°00'0294.4
2019-May-18 21:58N 43°32' E 007°01'0 0.2
2019-May-18 21:30N 43°32' E 007°00'0109.4
2019-May-18 21:30N 43°32' E 007°01'1 5.1
2019-May-18 21:21N 43°33' E 007°01'1 2.4
2019-May-18 21:00N 43°32' E 007°00'0 1.7
2019-May-18 20:57N 43°32' E 007°01'1 6.8
2019-May-18 20:51N 43°33' E 007°01'1 2.4
2019-May-18 20:30N 43°32' E 007°00'1485.2
2019-May-18 20:30N 43°33' E 007°01'1137.0
2019-May-18 20:30N 43°32' E 007°01'1 1.2
2019-May-18 20:00N 43°33' E 007°01'048.5
2019-May-18 20:00N 43°33' E 007°01'1170.4
2019-May-18 20:00N 43°32' E 007°00'2391.0
2019-May-18 20:00N 43°30' E 007°00'2 4.3 270 / 101010.6 5.4 18.0 16.0
2019-May-18 19:30N 43°32' E 007°01'014.7
2019-May-18 19:30N 43°32' E 007°00'0 8.1
2019-May-18 19:29N 43°32' E 007°01'1 1.2
2019-May-18 19:00N 43°32' E 007°01'144.9
2019-May-18 18:59N 43°32' E 007°00'126.7
2019-May-18 18:57N 43°33' E 007°01'1 1.8
2019-May-18 18:29N 43°32' E 007°00'0 6.7
2019-May-18 18:28N 43°32' E 007°01'110.5
2019-May-18 18:24N 43°33' E 007°01'0 0.0
2019-May-18 18:00N 43°33' E 007°01'134.0
2019-May-18 17:59N 43°32' E 007°00'0 6.1
2019-May-18 17:58N 43°32' E 007°01'0 0.2
2019-May-18 17:29N 43°32' E 007°00'1132.1
2019-May-18 17:28N 43°32' E 007°01'0 4.7
2019-May-18 17:24N 43°33' E 007°01'1 2.0
2019-May-18 16:59N 43°32' E 007°00'132.7
2019-May-18 16:57N 43°33' E 007°01'079.2
2019-May-18 16:57N 43°32' E 007°01'0 0.2
2019-May-18 16:30N 43°32' E 007°01'050.0
2019-May-18 16:30N 43°33' E 007°01'137.1
2019-May-18 16:28N 43°32' E 007°00'0 0.1
2019-May-18 16:00N 43°32' E 007°01'1241.6
2019-May-18 16:00N 43°33' E 007°01'3409.9
2019-May-18 16:00N 43°30' E 007°00'286.3 300 / 41010.610.8 23.016.616.7
2019-May-18 15:58N 43°32' E 007°00'0 0.1
2019-May-18 15:30N 43°32' E 007°00'0 2.1
2019-May-18 15:28N 43°32' E 007°01'064.9
2019-May-18 15:28N 43°32' E 007°00'0 0.0
2019-May-18 14:58N 43°32' E 007°00'0 1.5
2019-May-18 14:56N 43°32' E 007°00'1 2.6
2019-May-18 14:38N 43°33' E 007°01'0 2.0
2019-May-18 14:31N 43°33' E 007°01'1442.7
2019-May-18 14:30N 43°32' E 007°00'0 1.4
2019-May-18 14:29N 43°32' E 007°00'0 0.0
2019-May-18 14:00N 43°32' E 007°00'029.8
2019-May-18 14:00N 43°32' E 007°01'2203.4
2019-May-18 14:00N 43°30' E 007°00'32048.2 200 / 171009.610.8 23.015.416.7
2019-May-18 13:59N 43°33' E 007°01'1 1.7
2019-May-18 13:30N 43°32' E 007°00'180.2
2019-May-18 13:29N 43°33' E 007°01'1165.1
2019-May-18 13:29N 43°32' E 007°01'0 0.1
2019-May-18 13:00N 43°32' E 007°01'010.9
2019-May-18 13:00N 43°32' E 007°01'0 5.7
2019-May-18 13:00N 43°32' E 007°00'0 0.1
2019-May-18 12:30N 43°32' E 007°01'0 0.7
2019-May-18 12:27N 43°32' E 007°00'1412.5
2019-May-18 12:26N 43°33' E 007°01'1 1.8
2019-May-18 12:00N 43°32' E 007°01'0 2.4
2019-May-18 11:59N 43°32' E 007°00'111.4
2019-May-18 11:55N 43°33' E 007°01'1 1.7
2019-May-18 11:30N 43°32' E 007°01'1237.6
2019-May-18 11:30N 43°33' E 007°01'163.7
2019-May-18 11:29N 43°32' E 007°00'0 0.7
2019-May-18 11:00N 43°32' E 007°01'2227.1
2019-May-18 11:00N 43°30' E 007°00'2205.3 300 / 101009.610.8 16.0 16.0
2019-May-18 10:59N 43°32' E 007°01'0127.3
2019-May-18 10:59N 43°32' E 007°00'1 1.9
2019-May-18 10:30N 43°33' E 007°01'144.3
2019-May-18 10:29N 43°32' E 007°01'0 8.8
2019-May-18 10:29N 43°32' E 007°00'1 1.8
2019-May-18 09:59N 43°33' E 007°01'155.9
2019-May-18 09:58N 43°32' E 007°00'0 2.6
2019-May-18 09:58N 43°32' E 007°00'0 0.1
2019-May-18 09:30N 43°32' E 007°00'0 7.7
2019-May-18 09:29N 43°32' E 007°01'114.2
2019-May-18 09:26N 43°33' E 007°01'1 2.0
2019-May-18 09:00N 43°32' E 007°00'1235.7
2019-May-18 09:00N 43°33' E 007°01'3386.5
2019-May-18 09:00N 43°30' E 007°00'282.5 260 / 31009.610.8 23.015.916.6
2019-May-18 08:58N 43°32' E 007°00'1 1.3
2019-May-18 08:29N 43°32' E 007°01'150.1
2019-May-18 08:28N 43°32' E 007°00'0 0.1
2019-May-18 07:58N 43°32' E 007°00'0 0.0
2019-May-18 07:30N 43°32' E 007°00'2 3.5
2019-May-18 07:00N 43°30' E 007°00'713.5
2019-May-18 06:30N 43°24' E 006°58'816.6
2019-May-18 06:00N 43°16' E 006°53'816.7
2019-May-18 05:31N 43°09' E 006°47'916.8
2019-May-18 05:00N 43°01' E 006°42'1918.6
2019-May-18 04:00N 42°48' E 006°24'3617.9 360 / 271008.6 5.4 23.018.016.0
2019-May-18 02:00N 42°30' E 005°42'8721.6 290 / 351009.610.8 17.0 17.0
2019-May-17 22:00N 41°48' E 004°00'19 9.4 360 / 301010.6 5.4 18.0 16.0
2019-May-17 20:00N 41°42' E 003°36'4619.6 360 / 351010.6 5.4 18.0 16.0
2019-May-17 17:40N 41°21' E 002°42'518.0
2019-May-17 17:23N 41°20' E 002°36'718.1
2019-May-17 17:00N 41°18' E 002°27'917.4
2019-May-17 16:30N 41°16' E 002°15'5 9.1
2019-May-17 16:00N 41°18' E 002°10'3201.6
2019-May-17 16:00N 41°18' E 002°06'5 9.9 050 / 141010.610.8 23.014.916.3
2019-May-17 15:30N 41°21' E 002°11'0 0.4
2019-May-17 15:00N 41°22' E 002°11'0 0.0
2019-May-17 14:29N 41°22' E 002°11'0 0.0
2019-May-17 13:59N 41°22' E 002°11'0 0.0
2019-May-17 13:26N 41°22' E 002°11'511.3
2019-May-17 13:00N 41°18' E 002°06'581.1 350 / 201019.6 5.4 16.0 17.0
2019-May-17 12:56N 41°22' E 002°11'0 0.0
2019-May-17 12:29N 41°22' E 002°11'0 0.0
2019-May-17 11:58N 41°22' E 002°11'0 0.0
2019-May-17 11:28N 41°22' E 002°11'0 0.0
2019-May-17 10:58N 41°22' E 002°11'0 0.0
2019-May-17 10:28N 41°22' E 002°11'0 0.0
2019-May-17 10:01N 41°22' E 002°11'0 0.0
2019-May-17 09:30N 41°22' E 002°11'0 0.0
2019-May-17 09:00N 41°22' E 002°11'0 0.0
2019-May-17 08:30N 41°22' E 002°11'0 0.0
2019-May-17 08:00N 41°22' E 002°11'0 0.0
2019-May-17 07:29N 41°22' E 002°11'0 0.0
2019-May-17 06:59N 41°22' E 002°11'0 0.0
2019-May-17 06:29N 41°22' E 002°11'0 0.0
2019-May-17 05:59N 41°22' E 002°11'5 2.5
2019-May-17 04:00N 41°18' E 002°06'0 0.0 060 / 101008.610.8 23.012.716.1
2019-May-17 03:00N 41°18' E 002°06'311.9 070 / 151008.610.8 23.012.716.6
2019-May-17 02:43N 41°19' E 002°10'2 7.0
2019-May-17 02:27N 41°17' E 002°11'23 9.6
2019-May-17 00:00N 41°12' E 002°42'1413.5 180 / 91012.6 5.4 18.0 16.0
2019-May-16 23:00N 41°12' E 003°00'7715.3 180 / 251012.6 5.4 18.0 16.0
2019-May-16 18:00N 41°12' E 004°42'18 9.0 180 / 201016.6 14.0 6.416.0
2019-May-16 16:00N 41°12' E 005°06'7719.2 200 / 161016.610.8 16.0 7.815.5
2019-May-16 12:00N 41°18' E 006°48'3210.5 220 / 71017.6 5.4 19.0 17.0
2019-May-16 09:00N 41°18' E 007°30'5911.7 340 / 201017.6 5.4 17.0 16.0
2019-May-16 04:00N 41°18' E 008°48'2713.5 340 / 81016.610.8 23.012.716.1
2019-May-16 02:00N 41°18' E 009°24'1110.8 010 / 281016.610.8 23.013.315.9
2019-May-16 01:00N 41°24' E 009°36'2425.2 050 / 281014.6 5.4 19.0 15.0
2019-May-16 00:03N 41°36' E 010°03'350.5
2019-May-16 00:00N 41°36' E 010°00'4189.4 050 / 251014.6 5.4 19.0 16.0
2019-May-15 23:58N 41°36' E 010°05'813.8
2019-May-15 23:23N 41°40' E 010°15'4513.3
2019-May-15 20:00N 41°54' E 011°12'25 4.2 050 / 221016.6 17.0 16.0
2019-May-15 14:00N 42°06' E 011°42'0 0.0 050 / 81015.6 5.4 18.0 16.0
2019-May-15 09:00N 42°06' E 011°42'0 0.0 050 / 101016.6 5.4 17.0 16.0
2019-May-15 05:00N 42°06' E 011°42'7 7.5 020 / 201016.610.8 23.013.516.1
2019-May-15 04:00N 42°00' E 011°36'19 9.4 030 / 261016.610.8 11.0 1.616.0
2019-May-15 02:00N 42°06' E 011°12'1313.4 050 / 201019.6 5.4 19.0 17.0
2019-May-15 01:00N 42°06' E 010°54'2114.5 050 / 251019.6 5.4 19.0 17.0
2019-May-14 23:33N 42°22' E 010°36'115.4
2019-May-14 23:28N 42°23' E 010°35'815.2
2019-May-14 22:55N 42°28' E 010°26'815.4
2019-May-14 22:24N 42°33' E 010°18'915.3
2019-May-14 21:49N 42°39' E 010°09'2713.5
2019-May-14 19:51N 43°05' E 010°04'515.3
2019-May-14 19:31N 43°11' E 010°05'815.2
2019-May-14 19:01N 43°18' E 010°06'715.0
2019-May-14 18:31N 43°25' E 010°10'714.5
2019-May-14 18:01N 43°32' E 010°15'3 5.8
2019-May-14 17:31N 43°33' E 010°18'0 0.0
2019-May-14 16:59N 43°33' E 010°18'0 0.0
2019-May-14 16:29N 43°33' E 010°18'510.9
2019-May-14 16:00N 43°30' E 010°12'5589.4 080 / 181020.610.8 24.0 6.317.1
2019-May-14 15:59N 43°33' E 010°18'0 0.0
2019-May-14 15:29N 43°33' E 010°18'0 0.0
2019-May-14 14:59N 43°33' E 010°18'0 0.0
2019-May-14 14:25N 43°33' E 010°18'512.6
2019-May-14 14:00N 43°30' E 010°12'5228.8 090 / 151020.6 5.4 19.0 17.0
2019-May-14 13:58N 43°33' E 010°18'0 0.0
2019-May-14 13:25N 43°33' E 010°18'0 0.0
2019-May-14 12:55N 43°33' E 010°18'0 0.0
2019-May-14 12:30N 43°33' E 010°18'0 0.0
2019-May-14 11:57N 43°33' E 010°18'0 0.0
2019-May-14 11:30N 43°33' E 010°18'0 0.0
2019-May-14 11:00N 43°33' E 010°18'0 0.0
2019-May-14 10:27N 43°33' E 010°18'0 0.0
2019-May-14 09:56N 43°33' E 010°18'0 0.0
2019-May-14 09:29N 43°33' E 010°18'0 0.0
2019-May-14 08:53N 43°33' E 010°18'0 0.0
2019-May-14 08:23N 43°33' E 010°18'0 0.0
2019-May-14 07:58N 43°33' E 010°18'0 0.0
2019-May-14 07:28N 43°33' E 010°18'0 0.0
2019-May-14 06:58N 43°33' E 010°18'0 0.0
2019-May-14 06:28N 43°33' E 010°18'0 0.0
2019-May-14 05:58N 43°33' E 010°18'0 0.0
2019-May-14 05:30N 43°33' E 010°18'0 0.0
2019-May-14 05:00N 43°33' E 010°18'5474.4
2019-May-14 05:00N 43°30' E 010°12'511.2 100 / 51020.610.8 23.013.016.8
2019-May-14 04:30N 43°33' E 010°18'0 0.4
2019-May-14 04:00N 43°33' E 010°18'3 5.3
2019-May-14 03:30N 43°31' E 010°16'5 9.0
2019-May-14 03:00N 43°28' E 010°11'2165.2
2019-May-14 03:00N 43°30' E 010°12'918.1 060 / 151021.610.8 23.013.016.4
2019-May-14 02:30N 43°22' E 010°06'612.8
2019-May-14 02:00N 43°18' E 009°59'4244.1
2019-May-14 02:00N 43°18' E 009°54'3 5.6 050 / 251022.6 5.4 19.0 15.0
2019-May-14 01:30N 43°19' E 009°50'713.6
2019-May-14 01:01N 43°20' E 009°41'8497.8
2019-May-14 01:00N 43°18' E 009°30'3 5.9 050 / 201022.6 5.4 19.0 16.0
2019-May-14 00:31N 43°20' E 009°32'713.3
2019-May-14 00:01N 43°22' E 009°23'714.1
2019-May-13 23:30N 43°23' E 009°14'713.9
2019-May-13 23:00N 43°24' E 009°04'713.7
2019-May-13 22:30N 43°26' E 008°55'713.4
2019-May-13 22:00N 43°27' E 008°46'713.1
2019-May-13 21:30N 43°28' E 008°37'713.4
2019-May-13 21:00N 43°29' E 008°28'713.5
2019-May-13 20:30N 43°30' E 008°19'713.4
2019-May-13 20:00N 43°32' E 008°10'713.4
2019-May-13 19:30N 43°33' E 008°00'713.2
2019-May-13 19:00N 43°34' E 007°51'713.5
2019-May-13 18:30N 43°36' E 007°42'612.9
2019-May-13 18:00N 43°37' E 007°34'713.4
2019-May-13 17:30N 43°38' E 007°25'510.0
2019-May-13 17:00N 43°41' E 007°19'0 0.7
2019-May-13 16:28N 43°41' E 007°19'511.4
2019-May-13 16:00N 43°36' E 007°18'569.1 250 / 181021.610.8 24.016.117.0
2019-May-13 15:55N 43°41' E 007°19'0 0.0
2019-May-13 15:28N 43°41' E 007°19'0 0.0
2019-May-13 15:00N 43°41' E 007°19'5361.5
2019-May-13 15:00N 43°36' E 007°18'511.1 1021.610.8 24.016.116.8
2019-May-13 14:30N 43°41' E 007°19'0 0.0
2019-May-13 14:00N 43°41' E 007°19'0 0.1
2019-May-13 13:30N 43°41' E 007°19'510.8
2019-May-13 13:00N 43°36' E 007°18'5110.3 270 / 101021.6 5.4 20.0 17.0
2019-May-13 12:57N 43°41' E 007°19'0 0.1
2019-May-13 12:29N 43°41' E 007°19'0 0.0
2019-May-13 11:59N 43°41' E 007°19'0 0.2
2019-May-13 11:46N 43°41' E 007°19'0 0.1
2019-May-13 11:29N 43°41' E 007°19'0 0.2
2019-May-13 11:19N 43°41' E 007°19'0 0.1
2019-May-13 10:59N 43°41' E 007°19'0 0.7
2019-May-13 10:56N 43°41' E 007°19'0 0.1
2019-May-13 10:30N 43°41' E 007°19'0 1.6
2019-May-13 10:28N 43°41' E 007°19'0 0.0
2019-May-13 09:58N 43°41' E 007°19'0 0.0
2019-May-13 09:28N 43°41' E 007°19'0 0.0
2019-May-13 08:58N 43°41' E 007°19'0 0.0
2019-May-13 08:25N 43°41' E 007°19'0 0.0
2019-May-13 08:00N 43°41' E 007°19'0 0.2
2019-May-13 07:46N 43°41' E 007°19'0 0.2
2019-May-13 07:30N 43°41' E 007°19'0 4.0
2019-May-13 07:30N 43°41' E 007°19'0 0.0
2019-May-13 07:00N 43°41' E 007°19'5719.3
2019-May-13 07:00N 43°36' E 007°18'5380.2 270 / 131021.6 5.4 18.0 18.0
2019-May-13 06:59N 43°41' E 007°19'0 0.1
2019-May-13 06:30N 43°41' E 007°19'1 4.1
2019-May-13 06:18N 43°42' E 007°19'1 2.8
2019-May-13 06:00N 43°41' E 007°19'0 1.0
2019-May-13 05:58N 43°41' E 007°19'1 1.3
2019-May-13 05:30N 43°42' E 007°19'139.0
2019-May-13 05:29N 43°41' E 007°19'0 0.0
2019-May-13 05:00N 43°41' E 007°19'0 0.9
2019-May-13 04:57N 43°41' E 007°19'0 0.2
2019-May-13 04:30N 43°41' E 007°19'2 4.0
2019-May-13 04:00N 43°39' E 007°19'4234.2
2019-May-13 04:00N 43°36' E 007°18'2 4.2 050 / 31020.610.8 23.012.716.9
2019-May-13 03:30N 43°34' E 007°19'612.2
2019-May-13 03:00N 43°28' E 007°18'612.3
2019-May-13 02:30N 43°22' E 007°16'612.0
2019-May-13 02:00N 43°16' E 007°13'2119.4
2019-May-13 02:00N 43°18' E 007°12'715.1 310 / 81020.610.8 24.017.116.3
2019-May-13 01:30N 43°11' E 007°09'612.2
2019-May-13 01:00N 43°07' E 007°02'10623.4
2019-May-13 01:00N 43°00' E 006°54'3 7.1 360 / 161018.6 5.4 18.0 16.0
2019-May-13 00:30N 43°03' E 006°57'612.1
2019-May-13 00:00N 42°58' E 006°51'611.4
2019-May-12 23:29N 42°54' E 006°46'511.2
2019-May-12 23:00N 42°50' E 006°41'4715.6
2019-May-12 20:00N 42°18' E 005°54'7915.8 340 / 451019.6 5.4 17.0 17.0
2019-May-12 15:00N 41°30' E 004°30'2525.5 340 / 601021.610.8 23.015.415.6
2019-May-12 14:00N 41°12' E 004°06'4013.3 340 / 551025.6 5.4 19.0 17.0
2019-May-12 11:00N 40°48' E 003°24'3316.5 350 / 351027.6 5.4 19.0 17.0
2019-May-12 09:00N 40°24' E 002°54'4 8.4 330 / 131029.7 5.4 17.0 17.0
2019-May-12 08:34N 40°25' E 002°49'114.7
2019-May-12 08:30N 40°24' E 002°48'814.7
2019-May-12 07:59N 40°19' E 002°41'4815.9
2019-May-12 05:00N 39°48' E 001°54'2612.9 340 / 201029.710.8 23.015.917.5
2019-May-12 03:00N 39°30' E 001°30'2914.7 180 / 61029.710.8 22.516.117.5
2019-May-12 01:00N 39°12' E 001°00'1515.2 220 / 51029.6 5.4 18.0 16.0
2019-May-12 00:00N 39°00' E 000°48'10114.5 010 / 101028.6 5.4 18.0 16.0
2019-May-11 17:00N 37°36' W 000°24'2512.3 070 / 191023.610.8 23.015.119.1
2019-May-11 15:00N 37°30' W 000°54'0 0.0 060 / 191023.610.8 23.0 0.218.0
2019-May-11 07:00N 37°30' W 000°54'1414.3 050 / 101021.610.8 19.0 18.0
2019-May-11 06:00N 37°30' W 000°36'379126.3 190 / 21020.610.8 23.016.818.2
2019-May-11 03:00N 31°12' W 001°06'32791.3 190 / 61020.610.8 22.016.618.8
2019-May-10 23:25N 36°36' W 001°50'4914.7
2019-May-10 20:04N 36°26' W 002°50'415.9
2019-May-10 19:49N 36°26' W 002°55'515.8
2019-May-10 19:28N 36°27' W 003°01'1812.4
2019-May-10 18:00N 36°30' W 003°24'   280 / 81018.610.8 23.016.617.9

Dump ship's entire track history